sensor_id;sensor_type;location;lat;lon;timestamp;pressure;altitude;pressure_sealevel;temperature;humidity
17649;BME280;8943;51.110;-4.158;2023-03-16T00:00:21;100248.94;;;15.62;58.17
17649;BME280;8943;51.110;-4.158;2023-03-16T00:02:49;100233.66;;;15.62;58.14
17649;BME280;8943;51.110;-4.158;2023-03-16T00:05:18;100246.94;;;15.64;58.25
17649;BME280;8943;51.110;-4.158;2023-03-16T00:07:47;100238.03;;;15.63;58.36
17649;BME280;8943;51.110;-4.158;2023-03-16T00:10:15;100225.59;;;15.62;58.08
17649;BME280;8943;51.110;-4.158;2023-03-16T00:12:44;100233.66;;;15.62;58.14
17649;BME280;8943;51.110;-4.158;2023-03-16T00:15:12;100230.44;;;15.59;58.14
17649;BME280;8943;51.110;-4.158;2023-03-16T00:17:41;100223.84;;;15.53;58.22
17649;BME280;8943;51.110;-4.158;2023-03-16T00:20:14;100228.22;;;15.54;58.12
17649;BME280;8943;51.110;-4.158;2023-03-16T00:22:44;100222.16;;;15.52;58.12
17649;BME280;8943;51.110;-4.158;2023-03-16T00:25:12;100219.63;;;15.51;57.86
17649;BME280;8943;51.110;-4.158;2023-03-16T00:27:41;100212.56;;;15.50;58.34
17649;BME280;8943;51.110;-4.158;2023-03-16T00:30:12;100216.81;;;15.52;58.19
17649;BME280;8943;51.110;-4.158;2023-03-16T00:32:40;100213.41;;;15.50;58.29
17649;BME280;8943;51.110;-4.158;2023-03-16T00:35:08;100213.25;;;15.52;58.26
17649;BME280;8943;51.110;-4.158;2023-03-16T00:37:36;100210.41;;;15.53;58.14
17649;BME280;8943;51.110;-4.158;2023-03-16T00:40:07;100206.56;;;15.56;58.35
17649;BME280;8943;51.110;-4.158;2023-03-16T00:42:37;100201.53;;;15.53;58.23
17649;BME280;8943;51.110;-4.158;2023-03-16T00:45:06;100197.84;;;15.54;58.26
17649;BME280;8943;51.110;-4.158;2023-03-16T00:47:36;100204.88;;;15.55;58.32
17649;BME280;8943;51.110;-4.158;2023-03-16T00:50:05;100198.13;;;15.51;58.51
17649;BME280;8943;51.110;-4.158;2023-03-16T00:52:34;100197.66;;;15.55;58.35
17649;BME280;8943;51.110;-4.158;2023-03-16T00:55:02;100200.34;;;15.55;58.35
17649;BME280;8943;51.110;-4.158;2023-03-16T00:57:31;100195.00;;;15.55;58.26
17649;BME280;8943;51.110;-4.158;2023-03-16T00:59:59;100188.09;;;15.53;58.19
17649;BME280;8943;51.110;-4.158;2023-03-16T01:02:36;100187.94;;;15.54;58.10
17649;BME280;8943;51.110;-4.158;2023-03-16T01:05:05;100182.03;;;15.51;58.42
17649;BME280;8943;51.110;-4.158;2023-03-16T01:07:34;100183.03;;;15.50;58.40
17649;BME280;8943;51.110;-4.158;2023-03-16T01:10:04;100189.78;;;15.54;58.05
17649;BME280;8943;51.110;-4.158;2023-03-16T01:12:33;100181.19;;;15.50;58.26
17649;BME280;8943;51.110;-4.158;2023-03-16T01:15:02;100179.50;;;15.49;58.40
17649;BME280;8943;51.110;-4.158;2023-03-16T01:17:31;100177.84;;;15.48;58.36
17649;BME280;8943;51.110;-4.158;2023-03-16T01:20:02;100170.28;;;15.52;58.47
17649;BME280;8943;51.110;-4.158;2023-03-16T01:22:33;100172.47;;;15.48;58.34
17649;BME280;8943;51.110;-4.158;2023-03-16T01:25:03;100164.59;;;15.55;58.21
17649;BME280;8943;51.110;-4.158;2023-03-16T01:27:32;100167.47;;;15.53;58.26
17649;BME280;8943;51.110;-4.158;2023-03-16T01:30:00;100157.03;;;15.50;57.95
17649;BME280;8943;51.110;-4.158;2023-03-16T01:32:29;100151.34;;;15.53;58.42
17649;BME280;8943;51.110;-4.158;2023-03-16T01:34:57;100156.03;;;15.51;58.22
17649;BME280;8943;51.110;-4.158;2023-03-16T01:37:27;100157.72;;;15.52;58.27
17649;BME280;8943;51.110;-4.158;2023-03-16T01:39:55;100143.31;;;15.53;58.57
17649;BME280;8943;51.110;-4.158;2023-03-16T01:42:23;100134.53;;;15.51;58.25
17649;BME280;8943;51.110;-4.158;2023-03-16T01:44:53;100143.84;;;15.57;58.21
17649;BME280;8943;51.110;-4.158;2023-03-16T01:47:22;100143.31;;;15.53;58.50
17649;BME280;8943;51.110;-4.158;2023-03-16T01:49:51;100146.13;;;15.52;58.09
17649;BME280;8943;51.110;-4.158;2023-03-16T01:52:24;100139.78;;;15.53;58.08
17649;BME280;8943;51.110;-4.158;2023-03-16T01:54:57;100138.47;;;15.57;58.00
17649;BME280;8943;51.110;-4.158;2023-03-16T01:57:30;100129.41;;;15.58;58.11
17649;BME280;8943;51.110;-4.158;2023-03-16T02:00:05;100135.06;;;15.55;57.95
17649;BME280;8943;51.110;-4.158;2023-03-16T02:02:38;100136.38;;;15.51;58.06
17649;BME280;8943;51.110;-4.158;2023-03-16T02:05:12;100139.25;;;15.49;57.91
17649;BME280;8943;51.110;-4.158;2023-03-16T02:07:45;100136.56;;;15.49;57.93
17649;BME280;8943;51.110;-4.158;2023-03-16T02:10:17;100127.13;;;15.45;57.86
17649;BME280;8943;51.110;-4.158;2023-03-16T02:12:46;100138.16;;;15.42;57.67
17649;BME280;8943;51.110;-4.158;2023-03-16T02:15:14;100124.91;;;15.40;58.00
17649;BME280;8943;51.110;-4.158;2023-03-16T02:17:43;100125.09;;;15.39;58.16
17649;BME280;8943;51.110;-4.158;2023-03-16T02:20:24;100132.59;;;15.35;58.04
17649;BME280;8943;51.110;-4.158;2023-03-16T02:22:57;100128.44;;;15.41;58.05
17649;BME280;8943;51.110;-4.158;2023-03-16T02:25:31;100119.72;;;15.39;58.04
17649;BME280;8943;51.110;-4.158;2023-03-16T02:28:07;100118.03;;;15.38;58.07
17649;BME280;8943;51.110;-4.158;2023-03-16T02:30:39;100109.81;;;15.39;58.11
17649;BME280;8943;51.110;-4.158;2023-03-16T02:33:08;100106.59;;;15.36;58.10
17649;BME280;8943;51.110;-4.158;2023-03-16T02:35:36;100097.03;;;15.33;58.34
17649;BME280;8943;51.110;-4.158;2023-03-16T02:38:04;100084.75;;;15.31;58.45
17649;BME280;8943;51.110;-4.158;2023-03-16T02:40:33;100082.09;;;15.31;58.20
17649;BME280;8943;51.110;-4.158;2023-03-16T02:43:05;100081.91;;;15.32;58.26
17649;BME280;8943;51.110;-4.158;2023-03-16T02:45:36;100081.06;;;15.32;58.20
17649;BME280;8943;51.110;-4.158;2023-03-16T02:48:10;100068.34;;;15.34;58.20
17649;BME280;8943;51.110;-4.158;2023-03-16T02:50:45;100077.41;;;15.33;57.95
17649;BME280;8943;51.110;-4.158;2023-03-16T02:53:14;100070.69;;;15.29;58.29
17649;BME280;8943;51.110;-4.158;2023-03-16T02:55:43;100057.72;;;15.24;58.06
17649;BME280;8943;51.110;-4.158;2023-03-16T02:58:12;100055.53;;;15.19;58.16
17649;BME280;8943;51.110;-4.158;2023-03-16T03:00:41;100054.81;;;15.17;57.99
17649;BME280;8943;51.110;-4.158;2023-03-16T03:03:12;100057.19;;;15.20;58.22
17649;BME280;8943;51.110;-4.158;2023-03-16T03:05:40;100046.16;;;15.24;58.57
17649;BME280;8943;51.110;-4.158;2023-03-16T03:08:08;100048.97;;;15.22;58.40
17649;BME280;8943;51.110;-4.158;2023-03-16T03:10:36;100050.53;;;15.25;59.03
17649;BME280;8943;51.110;-4.158;2023-03-16T03:13:05;100049.50;;;15.26;58.81
17649;BME280;8943;51.110;-4.158;2023-03-16T03:15:34;100048.19;;;15.30;58.54
17649;BME280;8943;51.110;-4.158;2023-03-16T03:18:02;100047.19;;;15.31;58.46
17649;BME280;8943;51.110;-4.158;2023-03-16T03:20:32;100046.53;;;15.37;58.44
17649;BME280;8943;51.110;-4.158;2023-03-16T03:23:00;100042.03;;;15.37;58.53
17649;BME280;8943;51.110;-4.158;2023-03-16T03:25:28;100042.72;;;15.39;58.51
17649;BME280;8943;51.110;-4.158;2023-03-16T03:28:01;100036.50;;;15.39;58.59
17649;BME280;8943;51.110;-4.158;2023-03-16T03:30:31;100033.81;;;15.39;58.68
17649;BME280;8943;51.110;-4.158;2023-03-16T03:32:59;100030.78;;;15.42;58.67
17649;BME280;8943;51.110;-4.158;2023-03-16T03:35:27;100032.97;;;15.38;58.69
17649;BME280;8943;51.110;-4.158;2023-03-16T03:37:57;100038.19;;;15.40;58.61
17649;BME280;8943;51.110;-4.158;2023-03-16T03:40:25;100035.19;;;15.43;58.91
17649;BME280;8943;51.110;-4.158;2023-03-16T03:42:53;100022.75;;;15.42;58.62
17649;BME280;8943;51.110;-4.158;2023-03-16T03:45:21;100020.41;;;15.39;58.89
17649;BME280;8943;51.110;-4.158;2023-03-16T03:47:49;100014.53;;;15.43;58.75
17649;BME280;8943;51.110;-4.158;2023-03-16T03:50:17;100023.59;;;15.42;59.01
17649;BME280;8943;51.110;-4.158;2023-03-16T03:52:46;100015.56;;;15.42;59.06
17649;BME280;8943;51.110;-4.158;2023-03-16T03:55:15;100015.38;;;15.44;59.06
17649;BME280;8943;51.110;-4.158;2023-03-16T03:57:43;100016.22;;;15.44;58.78
17649;BME280;8943;51.110;-4.158;2023-03-16T04:00:12;100016.75;;;15.48;58.73
17649;BME280;8943;51.110;-4.158;2023-03-16T04:02:40;100021.28;;;15.48;58.67
17649;BME280;8943;51.110;-4.158;2023-03-16T04:05:08;100015.22;;;15.45;58.76
17649;BME280;8943;51.110;-4.158;2023-03-16T04:07:36;100007.16;;;15.45;58.78
17649;BME280;8943;51.110;-4.158;2023-03-16T04:10:06;100009.72;;;15.47;58.52
17649;BME280;8943;51.110;-4.158;2023-03-16T04:12:35;100010.69;;;15.46;58.65
17649;BME280;8943;51.110;-4.158;2023-03-16T04:15:04;100014.72;;;15.50;58.56
17649;BME280;8943;51.110;-4.158;2023-03-16T04:17:32;100004.00;;;15.50;58.76
17649;BME280;8943;51.110;-4.158;2023-03-16T04:20:00;100008.00;;;15.46;58.88
17649;BME280;8943;51.110;-4.158;2023-03-16T04:22:32;100005.84;;;15.50;58.86
17649;BME280;8943;51.110;-4.158;2023-03-16T04:25:00;100003.47;;;15.46;58.80
17649;BME280;8943;51.110;-4.158;2023-03-16T04:27:52;99997.97;;;15.48;59.11
17649;BME280;8943;51.110;-4.158;2023-03-16T04:30:37;100003.47;;;15.46;58.66
17649;BME280;8943;51.110;-4.158;2023-03-16T04:33:05;100003.47;;;15.46;58.41
17649;BME280;8943;51.110;-4.158;2023-03-16T04:35:33;100002.97;;;15.43;58.76
17649;BME280;8943;51.110;-4.158;2023-03-16T04:38:01;99993.59;;;15.47;59.00
17649;BME280;8943;51.110;-4.158;2023-03-16T04:40:30;100005.19;;;15.48;58.75
17649;BME280;8943;51.110;-4.158;2023-03-16T04:42:59;99996.94;;;15.49;58.68
17649;BME280;8943;51.110;-4.158;2023-03-16T04:45:28;99984.84;;;15.45;58.91
17649;BME280;8943;51.110;-4.158;2023-03-16T04:47:56;99967.59;;;15.48;58.81
17649;BME280;8943;51.110;-4.158;2023-03-16T04:50:24;99964.41;;;15.52;58.33
17649;BME280;8943;51.110;-4.158;2023-03-16T04:52:53;99967.94;;;15.53;58.54
17649;BME280;8943;51.110;-4.158;2023-03-16T04:55:21;99960.88;;;15.52;58.61
17649;BME280;8943;51.110;-4.158;2023-03-16T04:57:49;99949.97;;;15.53;58.24
17649;BME280;8943;51.110;-4.158;2023-03-16T05:00:19;99946.78;;;15.50;58.58
17649;BME280;8943;51.110;-4.158;2023-03-16T05:02:49;99943.25;;;15.49;58.22
17649;BME280;8943;51.110;-4.158;2023-03-16T05:05:18;99949.28;;;15.51;58.32
17649;BME280;8943;51.110;-4.158;2023-03-16T05:07:47;99940.56;;;15.49;58.70
17649;BME280;8943;51.110;-4.158;2023-03-16T05:10:16;99932.50;;;15.49;58.38
17649;BME280;8943;51.110;-4.158;2023-03-16T05:12:45;99912.19;;;15.46;58.41
17649;BME280;8943;51.110;-4.158;2023-03-16T05:15:13;99910.69;;;15.44;58.37
17649;BME280;8943;51.110;-4.158;2023-03-16T05:17:43;99902.31;;;15.47;58.43
17649;BME280;8943;51.110;-4.158;2023-03-16T05:20:13;99900.31;;;15.49;58.01
17649;BME280;8943;51.110;-4.158;2023-03-16T05:22:43;99910.69;;;15.44;58.12
17649;BME280;8943;51.110;-4.158;2023-03-16T05:25:12;99914.69;;;15.40;58.18
17649;BME280;8943;51.110;-4.158;2023-03-16T05:27:41;99915.72;;;15.39;58.17
17649;BME280;8943;51.110;-4.158;2023-03-16T05:30:11;99909.34;;;15.40;58.18
17649;BME280;8943;51.110;-4.158;2023-03-16T05:32:39;99912.19;;;15.38;58.42
17649;BME280;8943;51.110;-4.158;2023-03-16T05:35:09;99913.88;;;15.39;58.33
17649;BME280;8943;51.110;-4.158;2023-03-16T05:37:39;99918.75;;;15.44;58.51
17649;BME280;8943;51.110;-4.158;2023-03-16T05:40:10;99932.34;;;15.42;58.34
17649;BME280;8943;51.110;-4.158;2023-03-16T05:42:43;99930.97;;;15.46;58.37
17649;BME280;8943;51.110;-4.158;2023-03-16T05:45:12;99932.50;;;15.49;58.21
17649;BME280;8943;51.110;-4.158;2023-03-16T05:47:41;99933.66;;;15.46;58.14
17649;BME280;8943;51.110;-4.158;2023-03-16T05:50:13;99935.69;;;15.44;58.26
17649;BME280;8943;51.110;-4.158;2023-03-16T05:52:43;99933.84;;;15.45;58.06
17649;BME280;8943;51.110;-4.158;2023-03-16T05:55:12;99950.28;;;15.50;57.85
17649;BME280;8943;51.110;-4.158;2023-03-16T05:57:41;99936.88;;;15.50;57.90
17649;BME280;8943;51.110;-4.158;2023-03-16T06:00:11;99932.34;;;15.51;57.92
17649;BME280;8943;51.110;-4.158;2023-03-16T06:02:42;99931.31;;;15.52;58.06
17649;BME280;8943;51.110;-4.158;2023-03-16T06:05:11;99928.50;;;15.53;57.81
17649;BME280;8943;51.110;-4.158;2023-03-16T06:07:39;99930.84;;;15.56;57.77
17649;BME280;8943;51.110;-4.158;2023-03-16T06:10:09;99931.84;;;15.55;57.70
17649;BME280;8943;51.110;-4.158;2023-03-16T06:12:37;99939.25;;;15.53;57.77
17649;BME280;8943;51.110;-4.158;2023-03-16T06:15:06;99926.16;;;15.58;57.60
17649;BME280;8943;51.110;-4.158;2023-03-16T06:17:37;99932.19;;;15.60;57.40
17649;BME280;8943;51.110;-4.158;2023-03-16T06:20:07;99933.03;;;15.61;57.73
17649;BME280;8943;51.110;-4.158;2023-03-16T06:22:39;99933.59;;;15.64;57.58
17649;BME280;8943;51.110;-4.158;2023-03-16T06:25:09;99932.56;;;15.65;57.44
17649;BME280;8943;51.110;-4.158;2023-03-16T06:27:38;99928.56;;;15.69;57.77
17649;BME280;8943;51.110;-4.158;2023-03-16T06:30:09;99934.63;;;15.72;57.31
17649;BME280;8943;51.110;-4.158;2023-03-16T06:32:39;99928.25;;;15.73;57.10
17649;BME280;8943;51.110;-4.158;2023-03-16T06:35:09;99935.47;;;15.72;57.16
17649;BME280;8943;51.110;-4.158;2023-03-16T06:37:40;99929.06;;;15.73;57.17
17649;BME280;8943;51.110;-4.158;2023-03-16T06:40:09;99924.03;;;15.70;57.10
17649;BME280;8943;51.110;-4.158;2023-03-16T06:42:37;99928.91;;;15.66;57.26
17649;BME280;8943;51.110;-4.158;2023-03-16T06:45:06;99936.09;;;15.66;57.09
17649;BME280;8943;51.110;-4.158;2023-03-16T06:47:35;99924.88;;;15.70;57.00
17649;BME280;8943;51.110;-4.158;2023-03-16T06:50:03;99918.00;;;15.68;56.87
17649;BME280;8943;51.110;-4.158;2023-03-16T06:52:32;99910.44;;;15.63;57.00
17649;BME280;8943;51.110;-4.158;2023-03-16T06:55:01;99908.09;;;15.68;56.96
17649;BME280;8943;51.110;-4.158;2023-03-16T06:57:29;99921.50;;;15.68;56.89
17649;BME280;8943;51.110;-4.158;2023-03-16T06:59:57;99910.78;;;15.68;57.34
17649;BME280;8943;51.110;-4.158;2023-03-16T07:02:26;99916.16;;;15.68;57.10
17649;BME280;8943;51.110;-4.158;2023-03-16T07:04:54;99915.81;;;15.72;56.98
17649;BME280;8943;51.110;-4.158;2023-03-16T07:07:24;99916.66;;;15.72;57.23
17649;BME280;8943;51.110;-4.158;2023-03-16T07:09:52;99918.66;;;15.70;57.08
17649;BME280;8943;51.110;-4.158;2023-03-16T07:12:22;99900.06;;;15.77;56.97
17649;BME280;8943;51.110;-4.158;2023-03-16T07:14:50;99904.41;;;15.78;56.89
17649;BME280;8943;51.110;-4.158;2023-03-16T07:17:19;99904.06;;;15.73;57.26
17649;BME280;8943;51.110;-4.158;2023-03-16T07:19:48;99897.84;;;15.80;57.03
17649;BME280;8943;51.110;-4.158;2023-03-16T07:22:16;99889.78;;;15.80;57.34
17649;BME280;8943;51.110;-4.158;2023-03-16T07:24:44;99890.81;;;15.79;56.87
17649;BME280;8943;51.110;-4.158;2023-03-16T07:27:12;99904.06;;;15.81;56.63
17649;BME280;8943;51.110;-4.158;2023-03-16T07:29:42;99912.44;;;15.86;56.76
17649;BME280;8943;51.110;-4.158;2023-03-16T07:32:10;99901.06;;;15.84;56.80
17649;BME280;8943;51.110;-4.158;2023-03-16T07:34:38;99898.03;;;15.87;57.10
17649;BME280;8943;51.110;-4.158;2023-03-16T07:37:07;99890.97;;;15.86;56.81
17649;BME280;8943;51.110;-4.158;2023-03-16T07:39:36;99889.97;;;15.87;56.86
17649;BME280;8943;51.110;-4.158;2023-03-16T07:42:04;99874.84;;;15.94;56.73
17649;BME280;8943;51.110;-4.158;2023-03-16T07:44:32;99881.59;;;15.98;56.71
17649;BME280;8943;51.110;-4.158;2023-03-16T07:47:01;99895.00;;;15.98;56.76
17649;BME280;8943;51.110;-4.158;2023-03-16T07:49:29;99897.38;;;16.01;56.88
17649;BME280;8943;51.110;-4.158;2023-03-16T07:51:57;99897.19;;;16.03;56.76
17649;BME280;8943;51.110;-4.158;2023-03-16T07:54:25;99887.28;;;16.03;56.76
17649;BME280;8943;51.110;-4.158;2023-03-16T07:56:53;99891.31;;;16.07;56.45
17649;BME280;8943;51.110;-4.158;2023-03-16T07:59:21;99890.97;;;16.10;56.58
17649;BME280;8943;51.110;-4.158;2023-03-16T08:01:49;99893.50;;;16.12;56.32
17649;BME280;8943;51.110;-4.158;2023-03-16T08:04:18;99888.63;;;16.07;56.69
17649;BME280;8943;51.110;-4.158;2023-03-16T08:06:47;99889.28;;;16.09;56.42
17649;BME280;8943;51.110;-4.158;2023-03-16T08:09:16;99894.66;;;16.09;56.26
17649;BME280;8943;51.110;-4.158;2023-03-16T08:11:44;99883.91;;;16.09;56.43
17649;BME280;8943;51.110;-4.158;2023-03-16T08:14:12;99879.06;;;16.05;56.58
17649;BME280;8943;51.110;-4.158;2023-03-16T08:16:40;99883.44;;;16.06;56.44
17649;BME280;8943;51.110;-4.158;2023-03-16T08:19:08;99866.78;;;16.10;55.92
17649;BME280;8943;51.110;-4.158;2023-03-16T08:21:38;99866.31;;;16.07;56.23
17649;BME280;8943;51.110;-4.158;2023-03-16T08:24:26;99876.88;;;16.08;56.29
17649;BME280;8943;51.110;-4.158;2023-03-16T08:26:55;99876.53;;;16.03;56.13
17649;BME280;8943;51.110;-4.158;2023-03-16T08:29:23;99875.38;;;16.06;56.15
17649;BME280;8943;51.110;-4.158;2023-03-16T08:31:52;99871.81;;;16.05;56.16
17649;BME280;8943;51.110;-4.158;2023-03-16T08:34:22;99867.13;;;15.99;56.06
17649;BME280;8943;51.110;-4.158;2023-03-16T08:36:51;99864.81;;;15.96;56.63
17649;BME280;8943;51.110;-4.158;2023-03-16T08:39:20;99861.94;;;15.98;56.09
17649;BME280;8943;51.110;-4.158;2023-03-16T08:41:48;99871.50;;;16.00;56.28
17649;BME280;8943;51.110;-4.158;2023-03-16T08:44:17;99866.78;;;15.94;56.23
17649;BME280;8943;51.110;-4.158;2023-03-16T08:46:46;99854.56;;;15.91;56.11
17649;BME280;8943;51.110;-4.158;2023-03-16T08:49:15;99870.50;;;15.93;56.42
17649;BME280;8943;51.110;-4.158;2023-03-16T08:51:43;99859.94;;;15.83;56.31
17649;BME280;8943;51.110;-4.158;2023-03-16T08:54:13;99852.69;;;15.84;56.50
17649;BME280;8943;51.110;-4.158;2023-03-16T08:56:41;99844.13;;;15.80;56.74
17649;BME280;8943;51.110;-4.158;2023-03-16T08:59:10;99842.28;;;15.89;56.77
17649;BME280;8943;51.110;-4.158;2023-03-16T09:01:52;99853.72;;;15.91;56.92
17649;BME280;8943;51.110;-4.158;2023-03-16T09:04:21;99843.97;;;15.98;56.88
17649;BME280;8943;51.110;-4.158;2023-03-16T09:06:49;99845.63;;;16.07;56.97
17649;BME280;8943;51.110;-4.158;2023-03-16T09:09:35;99854.53;;;16.08;57.30
17649;BME280;8943;51.110;-4.158;2023-03-16T09:12:04;99843.59;;;16.17;56.73
17649;BME280;8943;51.110;-4.158;2023-03-16T09:14:33;99842.59;;;16.18;56.83
17649;BME280;8943;51.110;-4.158;2023-03-16T09:17:03;99847.59;;;16.30;56.74
17649;BME280;8943;51.110;-4.158;2023-03-16T09:19:33;99846.09;;;16.35;56.48
17649;BME280;8943;51.110;-4.158;2023-03-16T09:22:20;99845.94;;;16.37;56.48
17649;BME280;8943;51.110;-4.158;2023-03-16T09:24:50;99835.16;;;16.37;56.34
17649;BME280;8943;51.110;-4.158;2023-03-16T09:27:18;99847.25;;;16.41;56.25
17649;BME280;8943;51.110;-4.158;2023-03-16T09:29:48;99836.66;;;16.39;55.97
17649;BME280;8943;51.110;-4.158;2023-03-16T09:32:18;99830.63;;;16.37;56.15
17649;BME280;8943;51.110;-4.158;2023-03-16T09:34:46;99835.50;;;16.42;56.01
17649;BME280;8943;51.110;-4.158;2023-03-16T09:37:15;99835.69;;;16.40;55.99
17649;BME280;8943;51.110;-4.158;2023-03-16T09:39:43;99837.84;;;16.45;55.76
17649;BME280;8943;51.110;-4.158;2023-03-16T09:42:19;99847.59;;;16.46;55.91
17649;BME280;8943;51.110;-4.158;2023-03-16T09:45:05;99849.94;;;16.41;55.66
17649;BME280;8943;51.110;-4.158;2023-03-16T09:47:36;99828.59;;;16.39;55.41
17649;BME280;8943;51.110;-4.158;2023-03-16T09:50:07;99833.50;;;16.36;55.59
17649;BME280;8943;51.110;-4.158;2023-03-16T09:52:40;99835.16;;;16.37;55.82
17649;BME280;8943;51.110;-4.158;2023-03-16T09:55:18;99833.50;;;16.36;55.70
17649;BME280;8943;51.110;-4.158;2023-03-16T09:57:53;99837.84;;;16.37;55.76
17649;BME280;8943;51.110;-4.158;2023-03-16T10:00:25;99835.69;;;16.40;55.86
17649;BME280;8943;51.110;-4.158;2023-03-16T10:03:04;99823.22;;;16.39;56.06
17649;BME280;8943;51.110;-4.158;2023-03-16T10:05:38;99827.09;;;16.37;55.75
17649;BME280;8943;51.110;-4.158;2023-03-16T10:08:11;99821.41;;;16.40;55.69
17649;BME280;8943;51.110;-4.158;2023-03-16T10:11:05;99820.72;;;16.38;55.83
17649;BME280;8943;51.110;-4.158;2023-03-16T10:13:46;99817.31;;;16.44;55.73
17649;BME280;8943;51.110;-4.158;2023-03-16T10:16:17;99822.72;;;16.44;55.71
17649;BME280;8943;51.110;-4.158;2023-03-16T10:19:01;99820.34;;;16.49;55.82
17649;BME280;8943;51.110;-4.158;2023-03-16T10:21:32;99824.72;;;16.50;55.44
17649;BME280;8943;51.110;-4.158;2023-03-16T10:24:15;99819.81;;;16.54;55.55
17649;BME280;8943;51.110;-4.158;2023-03-16T10:26:54;99815.47;;;16.53;55.35
17649;BME280;8943;51.110;-4.158;2023-03-16T10:29:34;99811.59;;;16.55;55.16
17649;BME280;8943;51.110;-4.158;2023-03-16T10:32:12;99818.84;;;16.55;55.03
17649;BME280;8943;51.110;-4.158;2023-03-16T10:34:46;99806.69;;;16.59;54.89
17649;BME280;8943;51.110;-4.158;2023-03-16T10:37:16;99799.00;;;16.56;55.03
17649;BME280;8943;51.110;-4.158;2023-03-16T10:39:48;99810.41;;;16.58;55.19
17649;BME280;8943;51.110;-4.158;2023-03-16T10:42:20;99800.84;;;16.55;55.08
17649;BME280;8943;51.110;-4.158;2023-03-16T10:44:58;99804.88;;;16.51;55.18
17649;BME280;8943;51.110;-4.158;2023-03-16T10:47:30;99809.06;;;16.54;55.06
17649;BME280;8943;51.110;-4.158;2023-03-16T10:50:14;99804.88;;;16.51;54.92
17649;BME280;8943;51.110;-4.158;2023-03-16T10:52:50;99806.56;;;16.52;55.07
17649;BME280;8943;51.110;-4.158;2023-03-16T10:55:22;99812.94;;;16.51;55.31
17649;BME280;8943;51.110;-4.158;2023-03-16T10:57:52;99810.75;;;16.55;55.07
17649;BME280;8943;51.110;-4.158;2023-03-16T11:00:25;99801.84;;;16.54;55.05
17649;BME280;8943;51.110;-4.158;2023-03-16T11:02:58;99787.41;;;16.55;55.18
17649;BME280;8943;51.110;-4.158;2023-03-16T11:05:32;99790.41;;;16.60;55.28
17649;BME280;8943;51.110;-4.158;2023-03-16T11:08:11;99794.25;;;16.66;55.46
17649;BME280;8943;51.110;-4.158;2023-03-16T11:11:12;99806.19;;;16.71;55.40
17649;BME280;8943;51.110;-4.158;2023-03-16T11:14:10;99803.47;;;16.80;55.49
17649;BME280;8943;51.110;-4.158;2023-03-16T11:17:02;99795.50;;;16.86;55.20
17649;BME280;8943;51.110;-4.158;2023-03-16T11:19:43;99803.06;;;16.91;55.25
17649;BME280;8943;51.110;-4.158;2023-03-16T11:22:19;99793.25;;;16.98;55.02
17649;BME280;8943;51.110;-4.158;2023-03-16T11:25:30;99792.59;;;16.96;54.93
17649;BME280;8943;51.110;-4.158;2023-03-16T11:28:25;99797.66;;;16.99;55.12
17649;BME280;8943;51.110;-4.158;2023-03-16T11:31:05;99796.41;;;17.10;54.64
17649;BME280;8943;51.110;-4.158;2023-03-16T11:34:01;99792.88;;;17.09;54.34
17649;BME280;8943;51.110;-4.158;2023-03-16T11:37:13;99796.22;;;17.11;54.26
17649;BME280;8943;51.110;-4.158;2023-03-16T11:39:58;99788.81;;;17.13;54.31
17649;BME280;8943;51.110;-4.158;2023-03-16T11:43:04;99790.19;;;17.09;54.43
17649;BME280;8943;51.110;-4.158;2023-03-16T11:46:09;99789.69;;;17.06;54.37
17649;BME280;8943;51.110;-4.158;2023-03-16T11:48:41;99795.06;;;17.06;54.29
17649;BME280;8943;51.110;-4.158;2023-03-16T11:57:08;99777.03;;;17.14;54.50
17649;BME280;8943;51.110;-4.158;2023-03-16T12:00:00;99776.66;;;17.17;54.46
17649;BME280;8943;51.110;-4.158;2023-03-16T12:02:53;99784.38;;;17.20;54.44
17649;BME280;8943;51.110;-4.158;2023-03-16T12:05:51;99777.97;;;17.21;54.14
17649;BME280;8943;51.110;-4.158;2023-03-16T12:08:40;99785.94;;;17.15;54.15
17649;BME280;8943;51.110;-4.158;2023-03-16T12:11:24;99783.44;;;17.13;54.13
17649;BME280;8943;51.110;-4.158;2023-03-16T12:14:06;99779.22;;;17.11;54.20
17649;BME280;8943;51.110;-4.158;2023-03-16T12:16:53;99777.38;;;17.11;54.24
17649;BME280;8943;51.110;-4.158;2023-03-16T12:19:36;99777.75;;;17.08;54.12
17649;BME280;8943;51.110;-4.158;2023-03-16T12:22:26;99777.44;;;17.03;54.16
17649;BME280;8943;51.110;-4.158;2023-03-16T12:25:39;99770.75;;;16.99;54.10
17649;BME280;8943;51.110;-4.158;2023-03-16T12:28:22;99767.38;;;16.97;54.48
17649;BME280;8943;51.110;-4.158;2023-03-16T12:31:06;99756.97;;;16.94;54.35
17649;BME280;8943;51.110;-4.158;2023-03-16T12:34:07;99753.25;;;16.95;54.18
17649;BME280;8943;51.110;-4.158;2023-03-16T12:37:14;99750.41;;;16.88;54.25
17649;BME280;8943;51.110;-4.158;2023-03-16T12:40:02;99747.72;;;16.88;54.76
17649;BME280;8943;51.110;-4.158;2023-03-16T12:42:51;99760.84;;;16.91;54.42
17649;BME280;8943;51.110;-4.158;2023-03-16T12:45:32;99756.47;;;16.90;54.37
17649;BME280;8943;51.110;-4.158;2023-03-16T12:48:11;99759.38;;;16.89;54.58
17649;BME280;8943;51.110;-4.158;2023-03-16T12:50:50;99752.13;;;16.89;54.37
17649;BME280;8943;51.110;-4.158;2023-03-16T12:53:43;99756.38;;;16.84;54.74
17649;BME280;8943;51.110;-4.158;2023-03-16T12:56:13;99762.06;;;16.89;54.77
17649;BME280;8943;51.110;-4.158;2023-03-16T12:58:45;99759.81;;;16.92;54.80
17649;BME280;8943;51.110;-4.158;2023-03-16T13:01:17;99759.47;;;16.95;54.85
17649;BME280;8943;51.110;-4.158;2023-03-16T13:04:01;99758.94;;;17.00;55.06
17649;BME280;8943;51.110;-4.158;2023-03-16T13:06:32;99750.84;;;17.08;54.85
17649;BME280;8943;51.110;-4.158;2023-03-16T13:09:05;99745.59;;;17.07;54.79
17649;BME280;8943;51.110;-4.158;2023-03-16T13:11:43;99739.19;;;17.08;54.92
17649;BME280;8943;51.110;-4.158;2023-03-16T13:14:38;99738.56;;;17.06;54.90
17649;BME280;8943;51.110;-4.158;2023-03-16T13:17:24;99737.00;;;17.11;54.56
17649;BME280;8943;51.110;-4.158;2023-03-16T13:20:23;99728.63;;;17.06;54.76
17649;BME280;8943;51.110;-4.158;2023-03-16T13:23:17;99731.00;;;17.01;54.72
17649;BME280;8943;51.110;-4.158;2023-03-16T13:26:04;99720.59;;;16.98;55.10
17649;BME280;8943;51.110;-4.158;2023-03-16T13:28:35;99724.31;;;16.97;55.62
17649;BME280;8943;51.110;-4.158;2023-03-16T13:31:05;99721.47;;;16.98;55.29
17649;BME280;8943;51.110;-4.158;2023-03-16T13:33:47;99723.97;;;17.00;55.08